Triton Leader — 3FFE9 — position and weather

sailwx.info

Track history (hours):
 
Tides and Currents Weather Stations Pressure Air Temp Water Temp Dewpoint Dewpoint Depression Visibility Wind Speed Wind Dir Waves Ship Positions

Triton Leader

Last reported at 2017-Nov-10 02:14 UTC. Time now 2017-Nov-24 16:21 UTC.
Position N 32°29' W 117°20'.
Warning: this ship's position is 14 days out of date.

Length 199 m; draft 7.8 m.

Type: Cargo ship. MMSI: 357795000.

Date/timePositionNaut miles runAvg speedWind from/ knotsBaromVisibWave heightAir tempDewpointWater temp
2017-Nov-10 02:14N 32°29' W 117°20'415.9
2017-Nov-10 02:00N 32°32' W 117°18'814.3
2017-Nov-10 01:28N 32°39' W 117°13'4 9.2
2017-Nov-10 00:59N 32°43' W 117°13'6 1.5
2017-Nov-09 20:56N 32°39' W 117°07'0 0.0
2017-Nov-09 19:26N 32°39' W 117°07'0 0.0
2017-Nov-09 14:20N 32°39' W 117°07'3 6.4
2017-Nov-09 13:48N 32°42' W 117°10'310.4
2017-Nov-09 13:30N 32°43' W 117°13'5 9.9
2017-Nov-09 13:01N 32°38' W 117°14'4 8.3
2017-Nov-09 12:30N 32°36' W 117°18'4 7.2
2017-Nov-09 12:00N 32°37' W 117°23'713.7
2017-Nov-09 11:30N 32°41' W 117°29'713.5
2017-Nov-09 11:01N 32°46' W 117°35'713.4
2017-Nov-09 10:31N 32°51' W 117°40'713.5
2017-Nov-09 10:00N 32°56' W 117°45'713.5
2017-Nov-09 09:30N 33°01' W 117°51'612.1
2017-Nov-09 09:00N 33°05' W 117°55'510.0
2017-Nov-09 08:30N 33°09' W 117°59'510.2
2017-Nov-09 08:00N 33°13' W 118°03'510.6
2017-Nov-09 07:30N 33°18' W 118°07'2310.4
2017-Nov-09 05:17N 33°36' W 118°22'310.9
2017-Nov-09 05:00N 33°38' W 118°25'510.8
2017-Nov-09 04:30N 33°41' W 118°31'510.8
2017-Nov-09 04:00N 33°43' W 118°37'510.8
2017-Nov-09 03:30N 33°46' W 118°42'510.7
2017-Nov-09 03:01N 33°49' W 118°48'510.8
2017-Nov-09 02:31N 33°52' W 118°53'610.8
2017-Nov-09 01:58N 33°54' W 118°60'511.2
2017-Nov-09 01:30N 33°56' W 119°05'714.6
2017-Nov-09 01:00N 34°01' W 119°13'612.6
2017-Nov-09 00:30N 34°07' W 119°14'3 0.4
2017-Nov-08 18:00N 34°09' W 119°12'0 0.0
2017-Nov-08 13:45N 34°09' W 119°12'0 0.0
2017-Nov-08 13:06N 34°09' W 119°12'0 0.0
2017-Nov-08 12:59N 34°09' W 119°12'1 2.7
2017-Nov-08 12:27N 34°08' W 119°13'3 6.6
2017-Nov-08 12:00N 34°05' W 119°14'3 5.0
2017-Nov-08 11:29N 34°03' W 119°12'5 9.6
2017-Nov-08 11:00N 34°01' W 119°07'4 8.9
2017-Nov-08 10:30N 33°59' W 119°02'1 2.8
2017-Nov-08 10:00N 33°59' W 119°00'0 0.7
2017-Nov-08 09:30N 33°59' W 119°01'0 0.8
2017-Nov-08 09:00N 33°60' W 119°01'0 0.4
2017-Nov-08 08:30N 33°60' W 119°01'0 0.7
2017-Nov-08 08:00N 33°60' W 119°02'0 0.9
2017-Nov-08 07:30N 33°60' W 119°02'0 0.6
2017-Nov-08 07:00N 33°60' W 119°02'3 5.4
2017-Nov-08 06:30N 33°58' W 119°00'4 8.8
2017-Nov-08 06:00N 33°55' W 118°56'610.2
2017-Nov-08 05:28N 33°52' W 118°50'510.1
2017-Nov-08 04:59N 33°50' W 118°45'610.0
2017-Nov-08 04:22N 33°47' W 118°39'4 9.9
2017-Nov-08 03:55N 33°45' W 118°34'510.3
2017-Nov-08 03:27N 33°42' W 118°29'5 9.7
2017-Nov-08 02:57N 33°40' W 118°24'4 9.3
2017-Nov-08 02:30N 33°38' W 118°19'4 8.7
2017-Nov-08 02:00N 33°38' W 118°14'4 8.0
2017-Nov-08 01:30N 33°42' W 118°12'3 6.4
2017-Nov-08 01:00N 33°45' W 118°13'2 3.5
2017-Nov-08 00:30N 33°46' W 118°13'0 0.1
2017-Nov-07 23:56N 33°46' W 118°13'0 0.0
2017-Nov-07 23:26N 33°46' W 118°13'0 0.0
2017-Nov-07 22:56N 33°46' W 118°13'0 0.0
2017-Nov-07 22:26N 33°46' W 118°13'0 0.0
2017-Nov-07 21:56N 33°46' W 118°13'0 0.0
2017-Nov-07 21:26N 33°46' W 118°13'0 0.0
2017-Nov-07 20:56N 33°46' W 118°13'0 0.0
2017-Nov-07 20:26N 33°46' W 118°13'0 0.0
2017-Nov-07 19:56N 33°46' W 118°13'0 0.0
2017-Nov-07 19:26N 33°46' W 118°13'0 0.0
2017-Nov-07 18:50N 33°46' W 118°13'0 0.0
2017-Nov-07 18:26N 33°46' W 118°13'0 0.0
2017-Nov-07 17:56N 33°46' W 118°13'0 0.0
2017-Nov-07 17:26N 33°46' W 118°13'0 0.0
2017-Nov-07 12:56N 33°46' W 118°13'0 0.0
2017-Nov-07 12:20N 33°46' W 118°13'0 0.0
2017-Nov-07 10:56N 33°46' W 118°13'0 0.0
2017-Nov-07 10:20N 33°46' W 118°13'0 0.2
2017-Nov-07 10:00N 33°46' W 118°13'1 2.2
2017-Nov-07 09:30N 33°45' W 118°13'4 7.3
2017-Nov-07 09:00N 33°42' W 118°11'3 5.1
2017-Nov-07 08:30N 33°40' W 118°10'4 7.7
2017-Nov-07 07:59N 33°36' W 118°10'4 8.3
2017-Nov-07 07:29N 33°32' W 118°08'4 8.2
2017-Nov-07 07:00N 33°28' W 118°07'7 9.0
2017-Nov-07 06:16N 33°22' W 118°04'2 9.0
2017-Nov-07 06:00N 33°20' W 118°03'4 9.0
2017-Nov-07 05:31N 33°15' W 118°01'5 9.4
2017-Nov-07 05:00N 33°11' W 117°59'5 9.4
2017-Nov-07 04:31N 33°07' W 117°57'5 9.9
2017-Nov-07 04:00N 33°02' W 117°54'612.3
2017-Nov-07 03:30N 32°56' W 117°52'714.5
2017-Nov-07 03:00N 32°49' W 117°50'714.6
2017-Nov-07 02:30N 32°43' W 117°46'714.5
2017-Nov-07 02:00N 32°36' W 117°43'714.4
2017-Nov-07 01:30N 32°29' W 117°39'714.3
2017-Nov-07 01:01N 32°23' W 117°37'714.0
2017-Nov-07 00:30N 32°16' W 117°36'714.1
2017-Nov-07 00:00N 32°09' W 117°33'510.4
2017-Nov-06 23:30N 32°04' W 117°31'3 6.0
2017-Nov-06 23:00N 32°01' W 117°30'1114.8
2017-Nov-06 22:16N 31°51' W 117°25'414.7
2017-Nov-06 22:00N 31°47' W 117°24'714.4
2017-Nov-06 21:30N 31°40' W 117°21'914.2
2017-Nov-06 20:52N 31°32' W 117°18'614.3
2017-Nov-06 20:25N 31°26' W 117°15'  
Track history (hours):
 
Tides and Currents Weather Stations Pressure Air Temp Water Temp Dewpoint Dewpoint Depression Visibility Wind Speed Wind Dir Waves Ship Positions

Triton Leader

Last reported at 2017-Nov-10 02:14 UTC. Time now 2017-Nov-24 16:21 UTC.
Position N 32°29' W 117°20'.
Warning: this ship's position is 14 days out of date.

Length 199 m; draft 7.8 m.

Type: Cargo ship. MMSI: 357795000.

Date/timePositionNaut miles runAvg speedWind from/ knotsBaromVisibWave heightAir tempDewpointWater temp
2017-Nov-10 02:14N 32°29' W 117°20'415.9
2017-Nov-10 02:00N 32°32' W 117°18'814.3
2017-Nov-10 01:28N 32°39' W 117°13'4 9.2
2017-Nov-10 00:59N 32°43' W 117°13'6 1.5
2017-Nov-09 20:56N 32°39' W 117°07'0 0.0
2017-Nov-09 19:26N 32°39' W 117°07'0 0.0
2017-Nov-09 14:20N 32°39' W 117°07'3 6.4
2017-Nov-09 13:48N 32°42' W 117°10'310.4
2017-Nov-09 13:30N 32°43' W 117°13'5 9.9
2017-Nov-09 13:01N 32°38' W 117°14'4 8.3
2017-Nov-09 12:30N 32°36' W 117°18'4 7.2
2017-Nov-09 12:00N 32°37' W 117°23'713.7
2017-Nov-09 11:30N 32°41' W 117°29'713.5
2017-Nov-09 11:01N 32°46' W 117°35'713.4
2017-Nov-09 10:31N 32°51' W 117°40'713.5
2017-Nov-09 10:00N 32°56' W 117°45'713.5
2017-Nov-09 09:30N 33°01' W 117°51'612.1
2017-Nov-09 09:00N 33°05' W 117°55'510.0
2017-Nov-09 08:30N 33°09' W 117°59'510.2
2017-Nov-09 08:00N 33°13' W 118°03'510.6
2017-Nov-09 07:30N 33°18' W 118°07'2310.4
2017-Nov-09 05:17N 33°36' W 118°22'310.9
2017-Nov-09 05:00N 33°38' W 118°25'510.8
2017-Nov-09 04:30N 33°41' W 118°31'510.8
2017-Nov-09 04:00N 33°43' W 118°37'510.8
2017-Nov-09 03:30N 33°46' W 118°42'510.7
2017-Nov-09 03:01N 33°49' W 118°48'510.8
2017-Nov-09 02:31N 33°52' W 118°53'610.8
2017-Nov-09 01:58N 33°54' W 118°60'511.2
2017-Nov-09 01:30N 33°56' W 119°05'714.6
2017-Nov-09 01:00N 34°01' W 119°13'612.6
2017-Nov-09 00:30N 34°07' W 119°14'3 0.4
2017-Nov-08 18:00N 34°09' W 119°12'0 0.0
2017-Nov-08 13:45N 34°09' W 119°12'0 0.0
2017-Nov-08 13:06N 34°09' W 119°12'0 0.0
2017-Nov-08 12:59N 34°09' W 119°12'1 2.7
2017-Nov-08 12:27N 34°08' W 119°13'3 6.6
2017-Nov-08 12:00N 34°05' W 119°14'3 5.0
2017-Nov-08 11:29N 34°03' W 119°12'5 9.6
2017-Nov-08 11:00N 34°01' W 119°07'4 8.9
2017-Nov-08 10:30N 33°59' W 119°02'1 2.8
2017-Nov-08 10:00N 33°59' W 119°00'0 0.7
2017-Nov-08 09:30N 33°59' W 119°01'0 0.8
2017-Nov-08 09:00N 33°60' W 119°01'0 0.4
2017-Nov-08 08:30N 33°60' W 119°01'0 0.7
2017-Nov-08 08:00N 33°60' W 119°02'0 0.9
2017-Nov-08 07:30N 33°60' W 119°02'0 0.6
2017-Nov-08 07:00N 33°60' W 119°02'3 5.4
2017-Nov-08 06:30N 33°58' W 119°00'4 8.8
2017-Nov-08 06:00N 33°55' W 118°56'610.2
2017-Nov-08 05:28N 33°52' W 118°50'510.1
2017-Nov-08 04:59N 33°50' W 118°45'610.0
2017-Nov-08 04:22N 33°47' W 118°39'4 9.9
2017-Nov-08 03:55N 33°45' W 118°34'510.3
2017-Nov-08 03:27N 33°42' W 118°29'5 9.7
2017-Nov-08 02:57N 33°40' W 118°24'4 9.3
2017-Nov-08 02:30N 33°38' W 118°19'4 8.7
2017-Nov-08 02:00N 33°38' W 118°14'4 8.0
2017-Nov-08 01:30N 33°42' W 118°12'3 6.4
2017-Nov-08 01:00N 33°45' W 118°13'2 3.5
2017-Nov-08 00:30N 33°46' W 118°13'0 0.1
2017-Nov-07 23:56N 33°46' W 118°13'0 0.0
2017-Nov-07 23:26N 33°46' W 118°13'0 0.0
2017-Nov-07 22:56N 33°46' W 118°13'0 0.0
2017-Nov-07 22:26N 33°46' W 118°13'0 0.0
2017-Nov-07 21:56N 33°46' W 118°13'0 0.0
2017-Nov-07 21:26N 33°46' W 118°13'0 0.0
2017-Nov-07 20:56N 33°46' W 118°13'0 0.0
2017-Nov-07 20:26N 33°46' W 118°13'0 0.0
2017-Nov-07 19:56N 33°46' W 118°13'0 0.0
2017-Nov-07 19:26N 33°46' W 118°13'0 0.0
2017-Nov-07 18:50N 33°46' W 118°13'0 0.0
2017-Nov-07 18:26N 33°46' W 118°13'0 0.0
2017-Nov-07 17:56N 33°46' W 118°13'0 0.0
2017-Nov-07 17:26N 33°46' W 118°13'0 0.0
2017-Nov-07 12:56N 33°46' W 118°13'0 0.0
2017-Nov-07 12:20N 33°46' W 118°13'0 0.0
2017-Nov-07 10:56N 33°46' W 118°13'0 0.0
2017-Nov-07 10:20N 33°46' W 118°13'0 0.2
2017-Nov-07 10:00N 33°46' W 118°13'1 2.2
2017-Nov-07 09:30N 33°45' W 118°13'4 7.3
2017-Nov-07 09:00N 33°42' W 118°11'3 5.1
2017-Nov-07 08:30N 33°40' W 118°10'4 7.7
2017-Nov-07 07:59N 33°36' W 118°10'4 8.3
2017-Nov-07 07:29N 33°32' W 118°08'4 8.2
2017-Nov-07 07:00N 33°28' W 118°07'7 9.0
2017-Nov-07 06:16N 33°22' W 118°04'2 9.0
2017-Nov-07 06:00N 33°20' W 118°03'4 9.0
2017-Nov-07 05:31N 33°15' W 118°01'5 9.4
2017-Nov-07 05:00N 33°11' W 117°59'5 9.4
2017-Nov-07 04:31N 33°07' W 117°57'5 9.9
2017-Nov-07 04:00N 33°02' W 117°54'612.3
2017-Nov-07 03:30N 32°56' W 117°52'714.5
2017-Nov-07 03:00N 32°49' W 117°50'714.6
2017-Nov-07 02:30N 32°43' W 117°46'714.5
2017-Nov-07 02:00N 32°36' W 117°43'714.4
2017-Nov-07 01:30N 32°29' W 117°39'714.3
2017-Nov-07 01:01N 32°23' W 117°37'714.0
2017-Nov-07 00:30N 32°16' W 117°36'714.1
2017-Nov-07 00:00N 32°09' W 117°33'510.4
2017-Nov-06 23:30N 32°04' W 117°31'3 6.0
2017-Nov-06 23:00N 32°01' W 117°30'1114.8
2017-Nov-06 22:16N 31°51' W 117°25'414.7
2017-Nov-06 22:00N 31°47' W 117°24'714.4
2017-Nov-06 21:30N 31°40' W 117°21'914.2
2017-Nov-06 20:52N 31°32' W 117°18'614.3
2017-Nov-06 20:25N 31°26' W 117°15'  

Dump ship's entire track history